sensor_id;sensor_type;location;lat;lon;timestamp;temperature;humidity
12152;DHT22;6139;51.274;7.128;2023-05-10T00:00:43;13.20;99.90
12152;DHT22;6139;51.274;7.128;2023-05-10T00:01:44;13.20;99.90
12152;DHT22;6139;51.274;7.128;2023-05-10T00:02:46;13.20;99.90
12152;DHT22;6139;51.274;7.128;2023-05-10T00:03:48;13.20;99.90
12152;DHT22;6139;51.274;7.128;2023-05-10T00:04:50;13.20;99.90
12152;DHT22;6139;51.274;7.128;2023-05-10T00:05:51;13.20;99.90
12152;DHT22;6139;51.274;7.128;2023-05-10T00:06:53;13.10;99.90
12152;DHT22;6139;51.274;7.128;2023-05-10T00:07:54;13.10;99.90
12152;DHT22;6139;51.274;7.128;2023-05-10T00:08:56;13.10;99.90
12152;DHT22;6139;51.274;7.128;2023-05-10T00:09:57;13.10;99.90
12152;DHT22;6139;51.274;7.128;2023-05-10T00:10:58;13.10;99.90
12152;DHT22;6139;51.274;7.128;2023-05-10T00:11:59;13.10;99.90
12152;DHT22;6139;51.274;7.128;2023-05-10T00:13:01;13.10;99.90
12152;DHT22;6139;51.274;7.128;2023-05-10T00:14:03;13.10;99.90
12152;DHT22;6139;51.274;7.128;2023-05-10T00:15:06;13.10;99.90
12152;DHT22;6139;51.274;7.128;2023-05-10T00:16:07;13.10;99.90
12152;DHT22;6139;51.274;7.128;2023-05-10T00:17:09;13.10;99.90
12152;DHT22;6139;51.274;7.128;2023-05-10T00:18:10;13.10;99.90
12152;DHT22;6139;51.274;7.128;2023-05-10T00:19:14;13.10;99.90
12152;DHT22;6139;51.274;7.128;2023-05-10T00:20:15;13.10;99.90
12152;DHT22;6139;51.274;7.128;2023-05-10T00:21:16;13.10;99.90
12152;DHT22;6139;51.274;7.128;2023-05-10T00:22:17;13.10;99.90
12152;DHT22;6139;51.274;7.128;2023-05-10T00:23:19;13.10;99.90
12152;DHT22;6139;51.274;7.128;2023-05-10T00:24:20;13.20;99.90
12152;DHT22;6139;51.274;7.128;2023-05-10T00:25:22;13.20;99.90
12152;DHT22;6139;51.274;7.128;2023-05-10T00:26:23;13.10;99.90
12152;DHT22;6139;51.274;7.128;2023-05-10T00:27:28;13.10;99.90
12152;DHT22;6139;51.274;7.128;2023-05-10T00:28:29;13.10;99.90
12152;DHT22;6139;51.274;7.128;2023-05-10T00:29:31;13.10;99.90
12152;DHT22;6139;51.274;7.128;2023-05-10T00:30:32;13.10;99.90
12152;DHT22;6139;51.274;7.128;2023-05-10T00:31:36;13.10;99.90
12152;DHT22;6139;51.274;7.128;2023-05-10T00:32:37;13.10;99.90
12152;DHT22;6139;51.274;7.128;2023-05-10T00:33:39;13.10;99.90
12152;DHT22;6139;51.274;7.128;2023-05-10T00:34:42;13.10;99.90
12152;DHT22;6139;51.274;7.128;2023-05-10T00:35:43;13.10;99.90
12152;DHT22;6139;51.274;7.128;2023-05-10T00:36:45;13.10;99.90
12152;DHT22;6139;51.274;7.128;2023-05-10T00:37:47;13.10;99.90
12152;DHT22;6139;51.274;7.128;2023-05-10T00:38:48;13.10;99.90
12152;DHT22;6139;51.274;7.128;2023-05-10T00:39:50;13.10;99.90
12152;DHT22;6139;51.274;7.128;2023-05-10T00:40:51;13.10;99.90
12152;DHT22;6139;51.274;7.128;2023-05-10T00:42:00;13.10;99.90
12152;DHT22;6139;51.274;7.128;2023-05-10T00:43:01;13.10;99.90
12152;DHT22;6139;51.274;7.128;2023-05-10T00:44:03;13.10;99.90
12152;DHT22;6139;51.274;7.128;2023-05-10T00:45:06;13.10;99.90
12152;DHT22;6139;51.274;7.128;2023-05-10T00:46:08;13.10;99.90
12152;DHT22;6139;51.274;7.128;2023-05-10T00:47:09;13.10;99.90
12152;DHT22;6139;51.274;7.128;2023-05-10T00:48:12;13.10;99.90
12152;DHT22;6139;51.274;7.128;2023-05-10T00:49:13;13.10;99.90
12152;DHT22;6139;51.274;7.128;2023-05-10T00:50:17;13.10;99.90
12152;DHT22;6139;51.274;7.128;2023-05-10T00:51:18;13.10;99.90
12152;DHT22;6139;51.274;7.128;2023-05-10T00:52:20;13.10;99.90
12152;DHT22;6139;51.274;7.128;2023-05-10T00:53:21;13.10;99.90
12152;DHT22;6139;51.274;7.128;2023-05-10T00:54:23;13.20;99.90
12152;DHT22;6139;51.274;7.128;2023-05-10T00:55:25;13.20;99.90
12152;DHT22;6139;51.274;7.128;2023-05-10T00:56:27;13.10;99.90
12152;DHT22;6139;51.274;7.128;2023-05-10T00:57:30;13.10;99.90
12152;DHT22;6139;51.274;7.128;2023-05-10T00:58:32;13.10;99.90
12152;DHT22;6139;51.274;7.128;2023-05-10T00:59:34;13.20;99.90
12152;DHT22;6139;51.274;7.128;2023-05-10T01:00:37;13.20;99.90
12152;DHT22;6139;51.274;7.128;2023-05-10T01:01:39;13.10;99.90
12152;DHT22;6139;51.274;7.128;2023-05-10T01:02:41;13.10;99.90
12152;DHT22;6139;51.274;7.128;2023-05-10T01:03:43;13.10;99.90
12152;DHT22;6139;51.274;7.128;2023-05-10T01:04:45;13.10;99.90
12152;DHT22;6139;51.274;7.128;2023-05-10T01:05:48;13.10;99.90
12152;DHT22;6139;51.274;7.128;2023-05-10T01:06:50;13.10;99.90
12152;DHT22;6139;51.274;7.128;2023-05-10T01:07:51;13.10;99.90
12152;DHT22;6139;51.274;7.128;2023-05-10T01:08:53;13.10;99.90
12152;DHT22;6139;51.274;7.128;2023-05-10T01:09:54;13.10;99.90
12152;DHT22;6139;51.274;7.128;2023-05-10T01:10:57;13.10;99.90
12152;DHT22;6139;51.274;7.128;2023-05-10T01:11:59;13.10;99.90
12152;DHT22;6139;51.274;7.128;2023-05-10T01:13:03;13.10;99.90
12152;DHT22;6139;51.274;7.128;2023-05-10T01:14:05;13.10;99.90
12152;DHT22;6139;51.274;7.128;2023-05-10T01:15:09;13.10;99.90
12152;DHT22;6139;51.274;7.128;2023-05-10T01:16:12;13.10;99.90
12152;DHT22;6139;51.274;7.128;2023-05-10T01:17:15;13.10;99.90
12152;DHT22;6139;51.274;7.128;2023-05-10T01:18:19;13.10;99.90
12152;DHT22;6139;51.274;7.128;2023-05-10T01:19:23;13.10;99.90
12152;DHT22;6139;51.274;7.128;2023-05-10T01:20:29;13.10;99.90
12152;DHT22;6139;51.274;7.128;2023-05-10T01:21:42;13.10;99.90
12152;DHT22;6139;51.274;7.128;2023-05-10T01:26:18;13.10;99.90
12152;DHT22;6139;51.274;7.128;2023-05-10T01:27:37;13.10;99.90
12152;DHT22;6139;51.274;7.128;2023-05-10T01:30:41;13.10;99.90
12152;DHT22;6139;51.274;7.128;2023-05-10T01:32:05;13.10;99.90
12152;DHT22;6139;51.274;7.128;2023-05-10T01:33:11;13.10;99.90
12152;DHT22;6139;51.274;7.128;2023-05-10T01:34:17;13.10;99.90
12152;DHT22;6139;51.274;7.128;2023-05-10T01:35:26;13.10;99.90
12152;DHT22;6139;51.274;7.128;2023-05-10T01:36:40;13.00;99.90
12152;DHT22;6139;51.274;7.128;2023-05-10T01:37:48;13.10;99.90
12152;DHT22;6139;51.274;7.128;2023-05-10T01:38:57;13.00;99.90
12152;DHT22;6139;51.274;7.128;2023-05-10T01:40:03;13.00;99.90
12152;DHT22;6139;51.274;7.128;2023-05-10T01:41:14;13.00;99.90
12152;DHT22;6139;51.274;7.128;2023-05-10T01:42:21;13.10;99.90
12152;DHT22;6139;51.274;7.128;2023-05-10T01:43:28;13.00;99.90
12152;DHT22;6139;51.274;7.128;2023-05-10T01:44:33;13.00;99.90
12152;DHT22;6139;51.274;7.128;2023-05-10T01:45:41;13.00;99.90
12152;DHT22;6139;51.274;7.128;2023-05-10T01:46:42;13.10;99.90
12152;DHT22;6139;51.274;7.128;2023-05-10T01:47:48;13.10;99.90
12152;DHT22;6139;51.274;7.128;2023-05-10T01:48:53;13.10;99.90
12152;DHT22;6139;51.274;7.128;2023-05-10T01:49:56;13.10;99.90
12152;DHT22;6139;51.274;7.128;2023-05-10T01:51:00;13.10;99.90
12152;DHT22;6139;51.274;7.128;2023-05-10T01:52:07;13.10;99.90
12152;DHT22;6139;51.274;7.128;2023-05-10T01:53:10;13.10;99.90
12152;DHT22;6139;51.274;7.128;2023-05-10T01:54:14;13.10;99.90
12152;DHT22;6139;51.274;7.128;2023-05-10T01:55:18;13.10;99.90
12152;DHT22;6139;51.274;7.128;2023-05-10T01:56:24;13.10;99.90
12152;DHT22;6139;51.274;7.128;2023-05-10T01:57:29;13.10;99.90
12152;DHT22;6139;51.274;7.128;2023-05-10T01:58:33;13.10;99.90
12152;DHT22;6139;51.274;7.128;2023-05-10T01:59:37;13.10;99.90
12152;DHT22;6139;51.274;7.128;2023-05-10T02:00:43;13.10;99.90
12152;DHT22;6139;51.274;7.128;2023-05-10T02:01:45;13.10;99.90
12152;DHT22;6139;51.274;7.128;2023-05-10T02:02:50;13.10;99.90
12152;DHT22;6139;51.274;7.128;2023-05-10T02:03:53;13.10;99.90
12152;DHT22;6139;51.274;7.128;2023-05-10T02:04:58;13.10;99.90
12152;DHT22;6139;51.274;7.128;2023-05-10T02:05:59;13.10;99.90
12152;DHT22;6139;51.274;7.128;2023-05-10T02:07:02;13.10;99.90
12152;DHT22;6139;51.274;7.128;2023-05-10T02:08:05;13.00;99.90
12152;DHT22;6139;51.274;7.128;2023-05-10T02:09:09;13.00;99.90
12152;DHT22;6139;51.274;7.128;2023-05-10T02:10:12;13.00;99.90
12152;DHT22;6139;51.274;7.128;2023-05-10T02:11:15;13.00;99.90
12152;DHT22;6139;51.274;7.128;2023-05-10T02:12:18;13.00;99.90
12152;DHT22;6139;51.274;7.128;2023-05-10T02:13:23;13.00;99.90
12152;DHT22;6139;51.274;7.128;2023-05-10T02:14:26;13.00;99.90
12152;DHT22;6139;51.274;7.128;2023-05-10T02:15:28;13.00;99.90
12152;DHT22;6139;51.274;7.128;2023-05-10T02:16:30;13.00;99.90
12152;DHT22;6139;51.274;7.128;2023-05-10T02:17:35;13.00;99.90
12152;DHT22;6139;51.274;7.128;2023-05-10T02:18:39;13.00;99.90
12152;DHT22;6139;51.274;7.128;2023-05-10T02:19:43;13.00;99.90
12152;DHT22;6139;51.274;7.128;2023-05-10T02:20:47;13.00;99.90
12152;DHT22;6139;51.274;7.128;2023-05-10T02:21:50;13.00;99.90
12152;DHT22;6139;51.274;7.128;2023-05-10T02:22:54;13.00;99.90
12152;DHT22;6139;51.274;7.128;2023-05-10T02:23:58;13.00;99.90
12152;DHT22;6139;51.274;7.128;2023-05-10T02:25:00;13.00;99.90
12152;DHT22;6139;51.274;7.128;2023-05-10T02:26:04;12.90;99.90
12152;DHT22;6139;51.274;7.128;2023-05-10T02:27:07;12.90;99.90
12152;DHT22;6139;51.274;7.128;2023-05-10T02:28:11;12.90;99.90
12152;DHT22;6139;51.274;7.128;2023-05-10T02:29:13;12.90;99.90
12152;DHT22;6139;51.274;7.128;2023-05-10T02:30:16;12.90;99.90
12152;DHT22;6139;51.274;7.128;2023-05-10T02:31:18;12.90;99.90
12152;DHT22;6139;51.274;7.128;2023-05-10T02:32:21;12.90;99.90
12152;DHT22;6139;51.274;7.128;2023-05-10T02:33:23;12.90;99.90
12152;DHT22;6139;51.274;7.128;2023-05-10T02:34:28;12.90;99.90
12152;DHT22;6139;51.274;7.128;2023-05-10T02:35:30;12.90;99.90
12152;DHT22;6139;51.274;7.128;2023-05-10T02:36:34;12.90;99.90
12152;DHT22;6139;51.274;7.128;2023-05-10T02:37:37;13.00;99.90
12152;DHT22;6139;51.274;7.128;2023-05-10T02:38:39;12.90;99.90
12152;DHT22;6139;51.274;7.128;2023-05-10T02:39:41;12.90;99.90
12152;DHT22;6139;51.274;7.128;2023-05-10T02:40:45;12.90;99.90
12152;DHT22;6139;51.274;7.128;2023-05-10T02:41:48;12.90;99.90
12152;DHT22;6139;51.274;7.128;2023-05-10T02:42:52;12.90;99.90
12152;DHT22;6139;51.274;7.128;2023-05-10T02:43:59;12.90;99.90
12152;DHT22;6139;51.274;7.128;2023-05-10T02:45:07;12.90;99.90
12152;DHT22;6139;51.274;7.128;2023-05-10T02:46:10;12.90;99.90
12152;DHT22;6139;51.274;7.128;2023-05-10T02:47:12;12.90;99.90
12152;DHT22;6139;51.274;7.128;2023-05-10T02:48:12;12.80;99.90
12152;DHT22;6139;51.274;7.128;2023-05-10T02:49:16;12.90;99.90
12152;DHT22;6139;51.274;7.128;2023-05-10T02:50:19;12.80;99.90
12152;DHT22;6139;51.274;7.128;2023-05-10T02:51:25;12.80;99.90
12152;DHT22;6139;51.274;7.128;2023-05-10T02:52:30;12.80;99.90
12152;DHT22;6139;51.274;7.128;2023-05-10T02:53:39;12.80;99.90
12152;DHT22;6139;51.274;7.128;2023-05-10T02:54:49;12.70;99.90
12152;DHT22;6139;51.274;7.128;2023-05-10T02:55:52;12.80;99.90
12152;DHT22;6139;51.274;7.128;2023-05-10T02:56:59;12.80;99.90
12152;DHT22;6139;51.274;7.128;2023-05-10T02:58:02;12.80;99.90
12152;DHT22;6139;51.274;7.128;2023-05-10T02:59:03;12.80;99.90
12152;DHT22;6139;51.274;7.128;2023-05-10T03:00:06;12.80;99.90
12152;DHT22;6139;51.274;7.128;2023-05-10T03:01:08;12.70;99.90
12152;DHT22;6139;51.274;7.128;2023-05-10T03:02:11;12.70;99.90
12152;DHT22;6139;51.274;7.128;2023-05-10T03:03:13;12.70;99.90
12152;DHT22;6139;51.274;7.128;2023-05-10T03:04:15;12.70;99.90
12152;DHT22;6139;51.274;7.128;2023-05-10T03:05:16;12.70;99.90
12152;DHT22;6139;51.274;7.128;2023-05-10T03:06:19;12.70;99.90
12152;DHT22;6139;51.274;7.128;2023-05-10T03:07:20;12.70;99.90
12152;DHT22;6139;51.274;7.128;2023-05-10T03:08:23;12.70;99.90
12152;DHT22;6139;51.274;7.128;2023-05-10T03:09:24;12.70;99.90
12152;DHT22;6139;51.274;7.128;2023-05-10T03:10:27;12.70;99.90
12152;DHT22;6139;51.274;7.128;2023-05-10T03:11:43;12.70;99.90
12152;DHT22;6139;51.274;7.128;2023-05-10T03:13:01;12.70;99.90
12152;DHT22;6139;51.274;7.128;2023-05-10T03:14:12;12.70;99.90
12152;DHT22;6139;51.274;7.128;2023-05-10T03:15:22;12.70;99.90
12152;DHT22;6139;51.274;7.128;2023-05-10T03:16:29;12.70;99.90
12152;DHT22;6139;51.274;7.128;2023-05-10T03:17:41;12.70;99.90
12152;DHT22;6139;51.274;7.128;2023-05-10T03:18:54;12.70;99.90
12152;DHT22;6139;51.274;7.128;2023-05-10T03:19:57;12.70;99.90
12152;DHT22;6139;51.274;7.128;2023-05-10T03:21:02;12.70;99.90
12152;DHT22;6139;51.274;7.128;2023-05-10T03:22:10;12.70;99.90
12152;DHT22;6139;51.274;7.128;2023-05-10T03:23:21;12.70;99.90
12152;DHT22;6139;51.274;7.128;2023-05-10T03:24:27;12.70;99.90
12152;DHT22;6139;51.274;7.128;2023-05-10T03:25:29;12.70;99.90
12152;DHT22;6139;51.274;7.128;2023-05-10T03:26:33;12.70;99.90
12152;DHT22;6139;51.274;7.128;2023-05-10T03:27:43;12.60;99.90
12152;DHT22;6139;51.274;7.128;2023-05-10T03:28:45;12.60;99.90
12152;DHT22;6139;51.274;7.128;2023-05-10T03:29:49;12.70;99.90
12152;DHT22;6139;51.274;7.128;2023-05-10T03:30:52;12.70;99.90
12152;DHT22;6139;51.274;7.128;2023-05-10T03:31:54;12.70;99.90
12152;DHT22;6139;51.274;7.128;2023-05-10T03:32:56;12.60;99.90
12152;DHT22;6139;51.274;7.128;2023-05-10T03:33:57;12.60;99.90
12152;DHT22;6139;51.274;7.128;2023-05-10T03:35:01;12.60;99.90
12152;DHT22;6139;51.274;7.128;2023-05-10T03:36:07;12.60;99.90
12152;DHT22;6139;51.274;7.128;2023-05-10T03:37:10;12.60;99.90
12152;DHT22;6139;51.274;7.128;2023-05-10T03:38:11;12.60;99.90
12152;DHT22;6139;51.274;7.128;2023-05-10T03:39:13;12.60;99.90
12152;DHT22;6139;51.274;7.128;2023-05-10T03:40:14;12.60;99.90
12152;DHT22;6139;51.274;7.128;2023-05-10T03:41:17;12.60;99.90
12152;DHT22;6139;51.274;7.128;2023-05-10T03:42:18;12.60;99.90
12152;DHT22;6139;51.274;7.128;2023-05-10T03:43:21;12.60;99.90
12152;DHT22;6139;51.274;7.128;2023-05-10T03:44:22;12.60;99.90
12152;DHT22;6139;51.274;7.128;2023-05-10T03:45:24;12.60;99.90
12152;DHT22;6139;51.274;7.128;2023-05-10T03:46:25;12.60;99.90
12152;DHT22;6139;51.274;7.128;2023-05-10T03:47:27;12.60;99.90
12152;DHT22;6139;51.274;7.128;2023-05-10T03:48:30;12.60;99.90
12152;DHT22;6139;51.274;7.128;2023-05-10T03:49:32;12.60;99.90
12152;DHT22;6139;51.274;7.128;2023-05-10T03:50:33;12.60;99.90
12152;DHT22;6139;51.274;7.128;2023-05-10T03:51:35;12.60;99.90
12152;DHT22;6139;51.274;7.128;2023-05-10T03:52:37;12.60;99.90
12152;DHT22;6139;51.274;7.128;2023-05-10T03:53:40;12.60;99.90
12152;DHT22;6139;51.274;7.128;2023-05-10T03:54:41;12.60;99.90
12152;DHT22;6139;51.274;7.128;2023-05-10T03:55:43;12.60;99.90
12152;DHT22;6139;51.274;7.128;2023-05-10T03:56:44;12.60;99.90
12152;DHT22;6139;51.274;7.128;2023-05-10T03:57:49;12.60;99.90
12152;DHT22;6139;51.274;7.128;2023-05-10T03:58:50;12.60;99.90
12152;DHT22;6139;51.274;7.128;2023-05-10T03:59:52;12.60;99.90
12152;DHT22;6139;51.274;7.128;2023-05-10T04:00:53;12.60;99.90
12152;DHT22;6139;51.274;7.128;2023-05-10T04:01:56;12.60;99.90
12152;DHT22;6139;51.274;7.128;2023-05-10T04:02:57;12.60;99.90
12152;DHT22;6139;51.274;7.128;2023-05-10T04:03:58;12.60;99.90
12152;DHT22;6139;51.274;7.128;2023-05-10T04:04:59;12.60;99.90
12152;DHT22;6139;51.274;7.128;2023-05-10T04:06:02;12.60;99.90
12152;DHT22;6139;51.274;7.128;2023-05-10T04:07:03;12.60;99.90
12152;DHT22;6139;51.274;7.128;2023-05-10T04:08:06;12.60;99.90
12152;DHT22;6139;51.274;7.128;2023-05-10T04:09:07;12.60;99.90
12152;DHT22;6139;51.274;7.128;2023-05-10T04:10:10;12.60;99.90
12152;DHT22;6139;51.274;7.128;2023-05-10T04:11:11;12.60;99.90
12152;DHT22;6139;51.274;7.128;2023-05-10T04:12:14;12.60;99.90
12152;DHT22;6139;51.274;7.128;2023-05-10T04:13:15;12.60;99.90
12152;DHT22;6139;51.274;7.128;2023-05-10T04:14:17;12.60;99.90
12152;DHT22;6139;51.274;7.128;2023-05-10T04:15:18;12.60;99.90
12152;DHT22;6139;51.274;7.128;2023-05-10T04:16:20;12.60;99.90
12152;DHT22;6139;51.274;7.128;2023-05-10T04:17:21;12.60;99.90
12152;DHT22;6139;51.274;7.128;2023-05-10T04:18:23;12.60;99.90
12152;DHT22;6139;51.274;7.128;2023-05-10T04:19:24;12.60;99.90
12152;DHT22;6139;51.274;7.128;2023-05-10T04:20:32;12.60;99.90
12152;DHT22;6139;51.274;7.128;2023-05-10T04:21:33;12.60;99.90
12152;DHT22;6139;51.274;7.128;2023-05-10T04:22:35;12.60;99.90
12152;DHT22;6139;51.274;7.128;2023-05-10T04:23:37;12.60;99.90
12152;DHT22;6139;51.274;7.128;2023-05-10T04:24:39;12.60;99.90
12152;DHT22;6139;51.274;7.128;2023-05-10T04:25:40;12.60;99.90
12152;DHT22;6139;51.274;7.128;2023-05-10T04:26:42;12.60;99.90
12152;DHT22;6139;51.274;7.128;2023-05-10T04:27:43;12.60;99.90
12152;DHT22;6139;51.274;7.128;2023-05-10T04:28:45;12.60;99.90
12152;DHT22;6139;51.274;7.128;2023-05-10T04:29:46;12.60;99.90
12152;DHT22;6139;51.274;7.128;2023-05-10T04:30:48;12.60;99.90
12152;DHT22;6139;51.274;7.128;2023-05-10T04:31:49;12.60;99.90
12152;DHT22;6139;51.274;7.128;2023-05-10T04:32:51;12.60;99.90
12152;DHT22;6139;51.274;7.128;2023-05-10T04:33:52;12.60;99.90
12152;DHT22;6139;51.274;7.128;2023-05-10T04:34:54;12.70;99.90
12152;DHT22;6139;51.274;7.128;2023-05-10T04:35:55;12.60;99.90
12152;DHT22;6139;51.274;7.128;2023-05-10T04:36:57;12.70;99.90
12152;DHT22;6139;51.274;7.128;2023-05-10T04:37:58;12.70;99.90
12152;DHT22;6139;51.274;7.128;2023-05-10T04:39:01;12.70;99.90
12152;DHT22;6139;51.274;7.128;2023-05-10T04:40:04;12.70;99.90
12152;DHT22;6139;51.274;7.128;2023-05-10T04:41:07;12.70;99.90
12152;DHT22;6139;51.274;7.128;2023-05-10T04:42:09;12.70;99.90
12152;DHT22;6139;51.274;7.128;2023-05-10T04:43:11;12.80;99.90
12152;DHT22;6139;51.274;7.128;2023-05-10T04:44:12;12.70;99.90
12152;DHT22;6139;51.274;7.128;2023-05-10T04:45:14;12.70;99.90
12152;DHT22;6139;51.274;7.128;2023-05-10T04:46:15;12.80;99.90
12152;DHT22;6139;51.274;7.128;2023-05-10T04:47:17;12.70;99.90
12152;DHT22;6139;51.274;7.128;2023-05-10T04:48:18;12.70;99.90
12152;DHT22;6139;51.274;7.128;2023-05-10T04:49:20;12.70;99.90
12152;DHT22;6139;51.274;7.128;2023-05-10T04:50:21;12.70;99.90
12152;DHT22;6139;51.274;7.128;2023-05-10T04:51:23;12.70;99.90
12152;DHT22;6139;51.274;7.128;2023-05-10T04:52:24;12.70;99.90
12152;DHT22;6139;51.274;7.128;2023-05-10T04:53:26;12.70;99.90
12152;DHT22;6139;51.274;7.128;2023-05-10T04:54:29;12.70;99.90
12152;DHT22;6139;51.274;7.128;2023-05-10T04:55:31;12.70;99.90
12152;DHT22;6139;51.274;7.128;2023-05-10T04:56:32;12.70;99.90
12152;DHT22;6139;51.274;7.128;2023-05-10T04:57:34;12.70;99.90
12152;DHT22;6139;51.274;7.128;2023-05-10T04:58:35;12.70;99.90
12152;DHT22;6139;51.274;7.128;2023-05-10T04:59:37;12.70;99.90
12152;DHT22;6139;51.274;7.128;2023-05-10T05:00:38;12.80;99.90
12152;DHT22;6139;51.274;7.128;2023-05-10T05:01:40;12.80;99.90
12152;DHT22;6139;51.274;7.128;2023-05-10T05:02:42;12.70;99.90
12152;DHT22;6139;51.274;7.128;2023-05-10T05:03:45;12.70;99.90
12152;DHT22;6139;51.274;7.128;2023-05-10T05:04:46;12.70;99.90
12152;DHT22;6139;51.274;7.128;2023-05-10T05:05:48;12.70;99.90
12152;DHT22;6139;51.274;7.128;2023-05-10T05:06:49;12.70;99.90
12152;DHT22;6139;51.274;7.128;2023-05-10T05:07:51;12.70;99.90
12152;DHT22;6139;51.274;7.128;2023-05-10T05:08:52;12.70;99.90
12152;DHT22;6139;51.274;7.128;2023-05-10T05:09:55;12.70;99.90
12152;DHT22;6139;51.274;7.128;2023-05-10T05:10:56;12.70;99.90
12152;DHT22;6139;51.274;7.128;2023-05-10T05:11:59;12.70;99.90
12152;DHT22;6139;51.274;7.128;2023-05-10T05:13:02;12.70;99.90
12152;DHT22;6139;51.274;7.128;2023-05-10T05:14:02;12.70;99.90
12152;DHT22;6139;51.274;7.128;2023-05-10T05:15:05;12.70;99.90
12152;DHT22;6139;51.274;7.128;2023-05-10T05:16:07;12.80;99.90
12152;DHT22;6139;51.274;7.128;2023-05-10T05:17:09;12.80;99.90
12152;DHT22;6139;51.274;7.128;2023-05-10T05:18:09;12.70;99.90
12152;DHT22;6139;51.274;7.128;2023-05-10T05:19:11;12.80;99.90
12152;DHT22;6139;51.274;7.128;2023-05-10T05:20:13;12.80;99.90
12152;DHT22;6139;51.274;7.128;2023-05-10T05:21:15;12.80;99.90
12152;DHT22;6139;51.274;7.128;2023-05-10T05:22:16;12.70;99.90
12152;DHT22;6139;51.274;7.128;2023-05-10T05:23:20;12.80;99.90
12152;DHT22;6139;51.274;7.128;2023-05-10T05:24:21;12.80;99.90
12152;DHT22;6139;51.274;7.128;2023-05-10T05:25:25;12.80;99.90
12152;DHT22;6139;51.274;7.128;2023-05-10T05:26:26;12.80;99.90
12152;DHT22;6139;51.274;7.128;2023-05-10T05:27:28;12.80;99.90
12152;DHT22;6139;51.274;7.128;2023-05-10T05:28:29;12.80;99.90
12152;DHT22;6139;51.274;7.128;2023-05-10T05:29:33;12.80;99.90
12152;DHT22;6139;51.274;7.128;2023-05-10T05:30:34;12.80;99.90
12152;DHT22;6139;51.274;7.128;2023-05-10T05:31:36;12.80;99.90
12152;DHT22;6139;51.274;7.128;2023-05-10T05:32:37;12.80;99.90
12152;DHT22;6139;51.274;7.128;2023-05-10T05:33:39;12.80;99.90
12152;DHT22;6139;51.274;7.128;2023-05-10T05:34:40;12.80;99.90
12152;DHT22;6139;51.274;7.128;2023-05-10T05:35:42;12.80;99.90
12152;DHT22;6139;51.274;7.128;2023-05-10T05:36:45;12.80;99.90
12152;DHT22;6139;51.274;7.128;2023-05-10T05:37:47;12.80;99.90
12152;DHT22;6139;51.274;7.128;2023-05-10T05:38:48;12.80;99.90
12152;DHT22;6139;51.274;7.128;2023-05-10T05:39:50;12.80;99.90
12152;DHT22;6139;51.274;7.128;2023-05-10T05:40:52;12.90;99.90
12152;DHT22;6139;51.274;7.128;2023-05-10T05:41:54;12.80;99.90
12152;DHT22;6139;51.274;7.128;2023-05-10T05:42:55;12.80;99.90
12152;DHT22;6139;51.274;7.128;2023-05-10T05:43:57;12.80;99.90
12152;DHT22;6139;51.274;7.128;2023-05-10T05:44:58;12.80;99.90
12152;DHT22;6139;51.274;7.128;2023-05-10T05:46:00;12.80;99.90
12152;DHT22;6139;51.274;7.128;2023-05-10T05:47:01;12.80;99.90
12152;DHT22;6139;51.274;7.128;2023-05-10T05:48:04;12.80;99.90
12152;DHT22;6139;51.274;7.128;2023-05-10T05:49:06;12.80;99.90
12152;DHT22;6139;51.274;7.128;2023-05-10T05:50:07;12.80;99.90
12152;DHT22;6139;51.274;7.128;2023-05-10T05:51:09;12.80;99.90
12152;DHT22;6139;51.274;7.128;2023-05-10T05:52:12;12.90;99.90
12152;DHT22;6139;51.274;7.128;2023-05-10T05:53:12;12.80;99.90
12152;DHT22;6139;51.274;7.128;2023-05-10T05:54:15;12.90;99.90
12152;DHT22;6139;51.274;7.128;2023-05-10T05:55:16;12.90;99.90
12152;DHT22;6139;51.274;7.128;2023-05-10T05:56:19;12.90;99.90
12152;DHT22;6139;51.274;7.128;2023-05-10T05:57:24;12.90;99.90
12152;DHT22;6139;51.274;7.128;2023-05-10T05:58:27;12.90;99.90
12152;DHT22;6139;51.274;7.128;2023-05-10T05:59:29;12.90;99.90
12152;DHT22;6139;51.274;7.128;2023-05-10T06:00:30;13.00;99.90
12152;DHT22;6139;51.274;7.128;2023-05-10T06:01:32;12.90;99.90
12152;DHT22;6139;51.274;7.128;2023-05-10T06:02:33;12.90;99.90
12152;DHT22;6139;51.274;7.128;2023-05-10T06:03:34;12.90;99.90
12152;DHT22;6139;51.274;7.128;2023-05-10T06:04:35;12.90;99.90
12152;DHT22;6139;51.274;7.128;2023-05-10T06:05:37;12.90;99.90
12152;DHT22;6139;51.274;7.128;2023-05-10T06:06:39;12.90;99.90
12152;DHT22;6139;51.274;7.128;2023-05-10T06:07:41;13.00;99.90
12152;DHT22;6139;51.274;7.128;2023-05-10T06:08:42;13.00;99.90
12152;DHT22;6139;51.274;7.128;2023-05-10T06:09:44;13.00;99.90
12152;DHT22;6139;51.274;7.128;2023-05-10T06:10:45;13.00;99.90
12152;DHT22;6139;51.274;7.128;2023-05-10T06:11:48;13.00;99.90
12152;DHT22;6139;51.274;7.128;2023-05-10T06:12:49;13.00;99.90
12152;DHT22;6139;51.274;7.128;2023-05-10T06:13:51;12.90;99.90
12152;DHT22;6139;51.274;7.128;2023-05-10T06:14:52;13.00;99.90
12152;DHT22;6139;51.274;7.128;2023-05-10T06:15:54;13.00;99.90
12152;DHT22;6139;51.274;7.128;2023-05-10T06:16:55;13.00;99.90
12152;DHT22;6139;51.274;7.128;2023-05-10T06:17:57;13.00;99.90
12152;DHT22;6139;51.274;7.128;2023-05-10T06:18:58;13.00;99.90
12152;DHT22;6139;51.274;7.128;2023-05-10T06:20:00;13.00;99.90
12152;DHT22;6139;51.274;7.128;2023-05-10T06:21:01;13.00;99.90
12152;DHT22;6139;51.274;7.128;2023-05-10T06:22:03;13.10;99.90
12152;DHT22;6139;51.274;7.128;2023-05-10T06:23:04;13.10;99.90
12152;DHT22;6139;51.274;7.128;2023-05-10T06:24:06;13.10;99.90
12152;DHT22;6139;51.274;7.128;2023-05-10T06:25:08;13.10;99.90
12152;DHT22;6139;51.274;7.128;2023-05-10T06:26:10;13.10;99.90
12152;DHT22;6139;51.274;7.128;2023-05-10T06:27:13;13.10;99.90
12152;DHT22;6139;51.274;7.128;2023-05-10T06:28:14;13.10;99.90
12152;DHT22;6139;51.274;7.128;2023-05-10T06:29:16;13.10;99.90
12152;DHT22;6139;51.274;7.128;2023-05-10T06:30:18;13.10;99.90
12152;DHT22;6139;51.274;7.128;2023-05-10T06:31:23;13.20;99.90
12152;DHT22;6139;51.274;7.128;2023-05-10T06:32:25;13.10;99.90
12152;DHT22;6139;51.274;7.128;2023-05-10T06:33:26;13.20;99.90
12152;DHT22;6139;51.274;7.128;2023-05-10T06:34:28;13.20;99.90
12152;DHT22;6139;51.274;7.128;2023-05-10T06:35:29;13.20;99.90
12152;DHT22;6139;51.274;7.128;2023-05-10T06:36:32;13.30;99.90
12152;DHT22;6139;51.274;7.128;2023-05-10T06:37:33;13.20;99.90
12152;DHT22;6139;51.274;7.128;2023-05-10T06:38:35;13.20;99.90
12152;DHT22;6139;51.274;7.128;2023-05-10T06:39:36;13.20;99.90
12152;DHT22;6139;51.274;7.128;2023-05-10T06:40:41;13.20;99.90
12152;DHT22;6139;51.274;7.128;2023-05-10T06:41:43;13.20;99.90
12152;DHT22;6139;51.274;7.128;2023-05-10T06:42:45;13.20;99.90
12152;DHT22;6139;51.274;7.128;2023-05-10T06:43:47;13.20;99.90
12152;DHT22;6139;51.274;7.128;2023-05-10T06:44:48;13.20;99.90
12152;DHT22;6139;51.274;7.128;2023-05-10T06:45:50;13.20;99.90
12152;DHT22;6139;51.274;7.128;2023-05-10T06:46:51;13.20;99.90
12152;DHT22;6139;51.274;7.128;2023-05-10T06:47:55;13.20;99.90
12152;DHT22;6139;51.274;7.128;2023-05-10T06:48:57;13.20;99.90